createdAt,value
2022-08-17T00:00:12.802Z,72.13
2022-08-17T00:01:10.696Z,72.07
2022-08-17T00:02:14.529Z,72.57
2022-08-17T00:03:10.658Z,72.67
2022-08-17T00:04:11.717Z,72.37
2022-08-17T00:05:09.619Z,72.17
2022-08-17T00:06:09.589Z,72.17
2022-08-17T00:07:09.577Z,72.27
2022-08-17T00:08:09.557Z,72.47
2022-08-17T00:09:09.609Z,72.67
2022-08-17T00:10:09.557Z,72.97
2022-08-17T00:11:09.545Z,72.97
2022-08-17T00:12:41.741Z,73.27
2022-08-17T00:13:10.510Z,72.91
2022-08-17T00:14:09.488Z,73.11
2022-08-17T00:15:10.645Z,73.11
2022-08-17T00:16:09.473Z,73.31
2022-08-17T00:17:09.459Z,73.91
2022-08-17T00:19:01.221Z,73.31
2022-08-17T00:19:10.439Z,73.11
2022-08-17T00:20:09.422Z,72.97
2022-08-17T00:21:10.471Z,72.97
2022-08-17T00:22:34.842Z,72.87
2022-08-17T00:23:10.401Z,72.87
2022-08-17T00:24:09.383Z,72.97
2022-08-17T00:25:09.373Z,72.87
2022-08-17T00:26:09.363Z,72.77
2022-08-17T00:27:09.375Z,72.67
2022-08-17T00:28:09.356Z,72.67
2022-08-17T00:29:09.335Z,72.67
2022-08-17T00:30:10.312Z,73.27
2022-08-17T00:31:09.294Z,72.97
2022-08-17T00:33:12.524Z,72.87
2022-08-17T00:33:22.971Z,72.87
2022-08-17T00:34:10.273Z,72.87
2022-08-17T00:35:09.257Z,72.97
2022-08-17T00:36:09.253Z,73.38
2022-08-17T00:37:09.234Z,73.07
2022-08-17T00:38:09.234Z,73.31
2022-08-17T00:39:09.217Z,73.41
2022-08-17T00:40:09.271Z,73.51
2022-08-17T00:41:09.175Z,73.81
2022-08-17T00:42:09.178Z,73.81
2022-08-17T00:43:09.175Z,73.81
2022-08-17T00:44:09.179Z,73.81
2022-08-17T00:45:09.139Z,73.61
2022-08-17T00:46:09.129Z,73.27
2022-08-17T00:47:09.116Z,73.27
2022-08-17T00:48:11.522Z,73.07
2022-08-17T00:49:10.128Z,73.18
2022-08-17T00:50:09.117Z,73.27
2022-08-17T00:51:09.082Z,73.18
2022-08-17T00:52:11.755Z,73.38
2022-08-17T00:53:09.056Z,73.18
2022-08-17T00:54:09.038Z,73.07
2022-08-17T00:55:09.025Z,73.18
2022-08-17T00:56:09.028Z,72.97
2022-08-17T00:57:09.010Z,72.97
2022-08-17T00:58:09.000Z,72.87
2022-08-17T00:59:08.978Z,72.97
2022-08-17T01:00:08.972Z,73.07
2022-08-17T01:01:09.042Z,73.07
2022-08-17T01:02:08.941Z,73.07
2022-08-17T01:03:08.941Z,72.97
2022-08-17T01:04:08.922Z,73.07
2022-08-17T01:05:08.909Z,72.97
2022-08-17T01:06:08.901Z,72.97
2022-08-17T01:07:08.922Z,73.07
2022-08-17T01:08:08.874Z,72.87
2022-08-17T01:09:08.884Z,72.87
2022-08-17T01:10:08.860Z,72.77
2022-08-17T01:11:09.842Z,72.67
2022-08-17T01:12:08.835Z,72.67
2022-08-17T01:13:08.883Z,72.77
2022-08-17T01:14:08.805Z,72.77
2022-08-17T01:15:08.796Z,72.87
2022-08-17T01:16:08.795Z,73.07
2022-08-17T01:17:08.774Z,73.27
2022-08-17T01:18:08.772Z,73.07
2022-08-17T01:19:08.786Z,73.47
2022-08-17T01:20:08.736Z,73.68
2022-08-17T01:21:08.735Z,73.47
2022-08-17T01:22:08.715Z,73.61
2022-08-17T01:23:08.707Z,73.51
2022-08-17T01:24:08.697Z,73.71
2022-08-17T01:25:08.706Z,74.01
2022-08-17T01:26:08.689Z,74.65
2022-08-17T01:27:10.361Z,74.65
2022-08-17T01:28:08.661Z,74.65
2022-08-17T01:29:08.669Z,74.75
2022-08-17T01:30:58.255Z,75.09
2022-08-17T01:31:09.622Z,75.19
2022-08-17T01:32:08.611Z,75.39
2022-08-17T01:33:08.602Z,75.59
2022-08-17T01:34:08.579Z,75.59
2022-08-17T01:35:08.609Z,75.79
2022-08-17T01:36:08.561Z,75.79
2022-08-17T01:37:08.557Z,75.90
2022-08-17T01:38:08.549Z,75.90
2022-08-17T01:39:08.520Z,75.90
2022-08-17T01:40:08.588Z,75.99
2022-08-17T01:41:08.519Z,75.79
2022-08-17T01:42:08.491Z,75.70
2022-08-17T01:43:08.481Z,75.70
2022-08-17T01:44:08.472Z,75.79
2022-08-17T01:45:08.450Z,75.70
2022-08-17T01:46:08.484Z,75.99
2022-08-17T01:47:08.439Z,75.79
2022-08-17T01:48:08.421Z,75.70
2022-08-17T01:49:08.414Z,75.79
2022-08-17T01:50:08.403Z,75.90
2022-08-17T01:51:08.382Z,76.10
2022-08-17T01:52:08.403Z,76.10
2022-08-17T01:53:08.411Z,76.20
2022-08-17T01:54:08.353Z,76.23
2022-08-17T01:55:08.342Z,76.34
2022-08-17T01:56:08.335Z,76.34
2022-08-17T01:57:08.392Z,76.94
2022-08-17T01:58:08.407Z,76.64
2022-08-17T01:59:08.294Z,76.64
2022-08-17T02:00:08.285Z,76.64
2022-08-17T02:01:08.335Z,76.54
2022-08-17T02:02:08.287Z,76.74
2022-08-17T02:03:08.275Z,76.94
2022-08-17T02:04:08.248Z,76.64
2022-08-17T02:05:08.237Z,76.84
2022-08-17T02:06:26.897Z,76.74
2022-08-17T02:07:09.219Z,76.64
2022-08-17T02:08:08.236Z,76.74
2022-08-17T02:09:09.203Z,76.64
2022-08-17T02:10:19.834Z,77.04
2022-08-17T02:11:11.633Z,76.84
2022-08-17T02:12:39.430Z,76.94
2022-08-17T02:13:09.177Z,76.94
2022-08-17T02:14:08.128Z,76.84
2022-08-17T02:15:08.121Z,76.94
2022-08-17T02:16:08.110Z,77.04
2022-08-17T02:17:08.097Z,77.14
2022-08-17T02:18:08.078Z,77.28
2022-08-17T02:19:08.149Z,77.38
2022-08-17T02:20:08.059Z,77.48
2022-08-17T02:21:08.055Z,77.48
2022-08-17T02:22:08.047Z,77.58
2022-08-17T02:23:08.018Z,77.58
2022-08-17T02:24:08.037Z,77.58
2022-08-17T02:25:08.060Z,77.68
2022-08-17T02:26:08.005Z,77.68
2022-08-17T02:27:07.969Z,77.78
2022-08-17T02:28:07.986Z,77.68
2022-08-17T02:29:07.952Z,77.68
2022-08-17T02:30:59.851Z,77.68
2022-08-17T02:31:09.206Z,77.68
2022-08-17T02:32:07.920Z,77.68
2022-08-17T02:33:09.210Z,77.88
2022-08-17T02:34:07.903Z,77.88
2022-08-17T02:35:07.896Z,77.98
2022-08-17T02:36:07.888Z,77.98
2022-08-17T02:37:07.881Z,77.98
2022-08-17T02:38:07.857Z,77.98
2022-08-17T02:39:07.857Z,77.98
2022-08-17T02:40:07.919Z,77.98
2022-08-17T02:41:07.825Z,78.08
2022-08-17T02:42:07.846Z,78.19
2022-08-17T02:43:07.797Z,78.28
2022-08-17T02:44:07.794Z,78.28
2022-08-17T02:45:07.773Z,78.42
2022-08-17T02:46:07.755Z,78.63
2022-08-17T02:47:07.746Z,78.63
2022-08-17T02:48:07.795Z,78.72
2022-08-17T02:49:07.728Z,78.83
2022-08-17T02:50:07.737Z,79.03
2022-08-17T02:51:07.705Z,78.92
2022-08-17T02:52:07.708Z,79.03
2022-08-17T02:53:07.877Z,78.92
2022-08-17T02:54:39.226Z,78.92
2022-08-17T02:55:08.659Z,78.92
2022-08-17T02:56:07.649Z,79.03
2022-08-17T02:57:07.637Z,79.23
2022-08-17T02:58:07.653Z,79.13
2022-08-17T02:59:07.669Z,79.13
2022-08-17T03:00:07.596Z,79.13
2022-08-17T03:01:07.598Z,79.23
2022-08-17T03:02:07.674Z,79.33
2022-08-17T03:03:07.566Z,79.23
2022-08-17T03:04:07.569Z,79.23
2022-08-17T03:05:07.568Z,79.23
2022-08-17T03:06:07.574Z,79.13
2022-08-17T03:07:07.529Z,79.13
2022-08-17T03:08:07.528Z,79.13
2022-08-17T03:09:08.515Z,79.13
2022-08-17T03:10:07.488Z,79.23
2022-08-17T03:11:07.505Z,79.23
2022-08-17T03:12:07.482Z,79.23
2022-08-17T03:13:07.451Z,79.33
2022-08-17T03:14:07.442Z,79.33
2022-08-17T03:15:07.440Z,79.23
2022-08-17T03:16:07.443Z,79.13
2022-08-17T03:17:07.411Z,79.13
2022-08-17T03:18:07.391Z,79.33
2022-08-17T03:19:07.393Z,79.53
2022-08-17T03:20:07.381Z,79.53
2022-08-17T03:21:07.392Z,79.73
2022-08-17T03:22:35.672Z,79.73
2022-08-17T03:23:08.342Z,80.07
2022-08-17T03:24:08.962Z,79.93
2022-08-17T03:25:10.586Z,79.97
2022-08-17T03:26:07.312Z,79.97
2022-08-17T03:27:08.346Z,80.18
2022-08-17T03:28:07.284Z,80.27
2022-08-17T03:29:07.275Z,80.27
2022-08-17T03:30:07.268Z,80.27
2022-08-17T03:31:07.256Z,80.47
2022-08-17T03:32:07.235Z,80.58
2022-08-17T03:33:07.306Z,80.33
2022-08-17T03:34:07.215Z,80.24
2022-08-17T03:35:07.233Z,80.27
2022-08-17T03:36:07.212Z,80.13
2022-08-17T03:37:07.186Z,80.13
2022-08-17T03:38:07.177Z,80.13
2022-08-17T03:39:07.220Z,80.13
2022-08-17T03:40:07.222Z,80.13
2022-08-17T03:41:07.149Z,80.24
2022-08-17T03:42:07.126Z,80.04
2022-08-17T03:43:07.116Z,80.13
2022-08-17T03:44:07.139Z,80.04
2022-08-17T03:45:07.088Z,80.13
2022-08-17T03:46:10.966Z,80.38
2022-08-17T03:47:08.078Z,80.38
2022-08-17T03:48:07.058Z,80.58
2022-08-17T03:49:07.768Z,80.58
2022-08-17T03:50:10.332Z,80.78
2022-08-17T03:51:09.337Z,80.88
2022-08-17T03:52:07.034Z,80.88
2022-08-17T03:53:07.000Z,80.88
2022-08-17T03:54:07.674Z,80.98
2022-08-17T03:55:06.982Z,80.88
2022-08-17T03:56:06.998Z,81.08
2022-08-17T03:57:06.954Z,81.12
2022-08-17T03:58:06.977Z,81.08
2022-08-17T03:59:06.941Z,81.12
2022-08-17T04:00:07.934Z,80.98
2022-08-17T04:01:06.977Z,81.02
2022-08-17T04:02:06.960Z,81.12
2022-08-17T04:03:06.892Z,81.08
2022-08-17T04:04:06.881Z,81.08
2022-08-17T04:05:06.873Z,81.08
2022-08-17T04:06:06.862Z,80.98
2022-08-17T04:07:06.854Z,80.88
2022-08-17T04:08:06.852Z,80.88
2022-08-17T04:09:06.830Z,80.88
2022-08-17T04:10:06.835Z,80.88
2022-08-17T04:11:06.816Z,80.78
2022-08-17T04:12:06.802Z,80.78
2022-08-17T04:13:06.836Z,80.78
2022-08-17T04:14:06.778Z,80.88
2022-08-17T04:15:06.834Z,80.88
2022-08-17T04:16:06.753Z,81.02
2022-08-17T04:17:06.734Z,81.32
2022-08-17T04:18:07.560Z,81.42
2022-08-17T04:19:06.755Z,81.62
2022-08-17T04:20:06.705Z,81.73
2022-08-17T04:21:06.726Z,81.73
2022-08-17T04:22:06.716Z,81.82
2022-08-17T04:23:07.448Z,82.03
2022-08-17T04:24:06.687Z,82.13
2022-08-17T04:25:06.768Z,82.13
2022-08-17T04:26:06.686Z,82.13
2022-08-17T04:27:06.687Z,82.03
2022-08-17T04:28:14.577Z,82.03
2022-08-17T04:29:07.604Z,81.93
2022-08-17T04:30:06.611Z,81.82
2022-08-17T04:31:06.648Z,81.82
2022-08-17T04:32:06.618Z,81.93
2022-08-17T04:33:07.346Z,81.93
2022-08-17T04:34:06.728Z,81.82
2022-08-17T04:35:06.612Z,81.62
2022-08-17T04:36:06.518Z,81.59
2022-08-17T04:37:06.539Z,81.48
2022-08-17T04:38:06.503Z,81.28
2022-08-17T04:39:06.510Z,81.08
2022-08-17T04:40:06.508Z,80.98
2022-08-17T04:41:06.493Z,80.84
2022-08-17T04:42:06.448Z,80.64
2022-08-17T04:43:06.450Z,80.54
2022-08-17T04:44:06.430Z,80.64
2022-08-17T04:45:06.421Z,80.44
2022-08-17T04:46:06.411Z,80.33
2022-08-17T04:47:06.443Z,80.33
2022-08-17T04:48:06.394Z,80.44
2022-08-17T04:49:06.371Z,80.44
2022-08-17T04:50:06.368Z,80.44
2022-08-17T04:51:06.381Z,80.44
2022-08-17T04:52:06.397Z,80.54
2022-08-17T04:53:06.322Z,80.54
2022-08-17T04:54:06.335Z,80.54
2022-08-17T04:55:06.303Z,80.78
2022-08-17T04:56:06.308Z,80.88
2022-08-17T04:57:06.279Z,80.88
2022-08-17T04:58:06.320Z,80.88
2022-08-17T04:59:06.283Z,80.64
2022-08-17T05:00:06.264Z,80.84
2022-08-17T05:01:06.253Z,80.74
2022-08-17T05:02:06.225Z,80.64
2022-08-17T05:03:06.217Z,80.44
2022-08-17T05:04:32.803Z,80.10
2022-08-17T05:05:07.195Z,80.00
2022-08-17T05:06:06.176Z,79.80
2022-08-17T05:07:06.186Z,79.80
2022-08-17T05:08:06.176Z,79.46
2022-08-17T05:09:06.146Z,79.36
2022-08-17T05:10:06.133Z,79.16
2022-08-17T05:11:06.132Z,78.96
2022-08-17T05:12:06.117Z,78.81
2022-08-17T05:13:06.121Z,78.61
2022-08-17T05:14:06.109Z,78.61
2022-08-17T05:15:06.078Z,78.51
2022-08-17T05:16:06.060Z,78.41
2022-08-17T05:17:07.177Z,78.31
2022-08-17T05:18:07.040Z,78.31
2022-08-17T05:19:06.039Z,78.01
2022-08-17T05:20:06.056Z,77.91
2022-08-17T05:21:05.999Z,77.97
2022-08-17T05:22:06.002Z,77.97
2022-08-17T05:23:05.991Z,78.07
2022-08-17T05:24:09.656Z,78.07
2022-08-17T05:25:06.995Z,77.97
2022-08-17T05:26:06.288Z,78.17
2022-08-17T05:27:06.233Z,78.07
2022-08-17T05:28:05.923Z,77.87
2022-08-17T05:29:05.921Z,77.97
2022-08-17T05:30:05.933Z,77.87
2022-08-17T05:31:05.963Z,77.77
2022-08-17T05:32:38.951Z,77.67
2022-08-17T05:33:06.890Z,77.67
2022-08-17T05:34:05.862Z,77.87
2022-08-17T05:35:05.876Z,77.87
2022-08-17T05:36:05.831Z,77.97
2022-08-17T05:37:05.881Z,77.87
2022-08-17T05:38:05.815Z,77.97
2022-08-17T05:39:05.805Z,78.27
2022-08-17T05:40:05.880Z,78.07
2022-08-17T05:41:05.782Z,78.17
2022-08-17T05:42:05.825Z,78.07
2022-08-17T05:43:05.764Z,78.07
2022-08-17T05:44:05.745Z,78.07
2022-08-17T05:45:05.756Z,77.97
2022-08-17T05:46:05.732Z,77.73
2022-08-17T05:47:05.708Z,77.63
2022-08-17T05:48:05.755Z,77.63
2022-08-17T05:49:05.693Z,77.33
2022-08-17T05:50:09.429Z,77.43
2022-08-17T05:51:05.670Z,77.13
2022-08-17T05:52:05.658Z,76.89
2022-08-17T05:53:05.644Z,76.79
2022-08-17T05:54:05.653Z,76.69
2022-08-17T05:55:05.627Z,76.09
2022-08-17T05:56:05.611Z,76.05
2022-08-17T05:57:05.609Z,75.95
2022-08-17T05:58:05.588Z,76.05
2022-08-17T05:59:05.573Z,75.95
2022-08-17T06:00:05.598Z,75.75
2022-08-17T06:01:05.596Z,75.31
2022-08-17T06:02:05.543Z,75.21
2022-08-17T06:03:05.535Z,75.11
2022-08-17T06:04:05.523Z,74.57
2022-08-17T06:05:05.510Z,74.27
2022-08-17T06:06:05.551Z,74.18
2022-08-17T06:07:05.557Z,74.04
2022-08-17T06:08:05.461Z,73.54
2022-08-17T06:09:05.461Z,73.24
2022-08-17T06:10:05.527Z,73.00
2022-08-17T06:11:05.441Z,72.60
2022-08-17T06:12:05.451Z,72.16
2022-08-17T06:13:05.422Z,72.20
2022-08-17T06:14:05.412Z,72.50
2022-08-17T06:15:05.398Z,72.86
2022-08-17T06:16:05.513Z,72.27
2022-08-17T06:17:06.373Z,72.43
2022-08-17T06:18:05.363Z,72.03
2022-08-17T06:19:05.366Z,71.19
2022-08-17T06:20:05.355Z,70.89
2022-08-17T06:21:05.333Z,70.79
2022-08-17T06:22:05.445Z,70.69
2022-08-17T06:23:05.306Z,70.69
2022-08-17T06:24:05.295Z,71.00
2022-08-17T06:25:05.304Z,70.69
2022-08-17T06:26:06.289Z,70.69
2022-08-17T06:27:05.267Z,70.59
2022-08-17T06:28:05.327Z,70.69
2022-08-17T06:29:05.242Z,70.86
2022-08-17T06:30:05.237Z,70.59
2022-08-17T06:31:05.227Z,70.89
2022-08-17T06:32:05.240Z,70.89
2022-08-17T06:33:05.229Z,70.89
2022-08-17T06:34:05.181Z,70.89
2022-08-17T06:35:05.168Z,71.30
2022-08-17T06:36:09.207Z,71.30
2022-08-17T06:37:05.149Z,71.19
2022-08-17T06:38:05.170Z,71.09
2022-08-17T06:39:05.149Z,71.26
2022-08-17T06:40:05.165Z,70.79
2022-08-17T06:41:05.101Z,70.79
2022-08-17T06:42:05.122Z,70.69
2022-08-17T06:43:07.112Z,70.89
2022-08-17T06:44:05.086Z,71.19
2022-08-17T06:45:05.070Z,71.39
2022-08-17T06:46:05.044Z,71.30
2022-08-17T06:47:05.043Z,70.96
2022-08-17T06:48:05.036Z,70.66
2022-08-17T06:49:05.041Z,71.06
2022-08-17T06:50:05.003Z,70.23
2022-08-17T06:51:04.994Z,70.23
2022-08-17T06:52:04.973Z,70.32
2022-08-17T06:53:04.964Z,69.82
2022-08-17T06:54:04.953Z,69.79
2022-08-17T06:55:04.988Z,69.59
2022-08-17T06:56:04.943Z,69.59
2022-08-17T06:57:04.917Z,69.09
2022-08-17T06:58:12.388Z,69.09
2022-08-17T06:59:05.903Z,69.09
2022-08-17T07:00:04.939Z,68.96
2022-08-17T07:01:04.928Z,69.06
2022-08-17T07:02:04.890Z,68.76
2022-08-17T07:03:05.053Z,68.76
2022-08-17T07:04:11.620Z,68.76
2022-08-17T07:05:05.856Z,68.33
2022-08-17T07:06:04.824Z,68.43
2022-08-17T07:07:04.815Z,68.73
2022-08-17T07:08:04.804Z,68.73
2022-08-17T07:09:04.799Z,68.33
2022-08-17T07:10:04.778Z,68.66
2022-08-17T07:11:04.844Z,69.16
2022-08-17T07:12:04.764Z,69.56
2022-08-17T07:13:04.742Z,69.13
2022-08-17T07:14:04.731Z,68.82
2022-08-17T07:15:04.709Z,68.43
2022-08-17T07:16:04.709Z,68.59
2022-08-17T07:17:04.723Z,67.99
2022-08-17T07:18:04.680Z,67.69
2022-08-17T07:19:04.679Z,67.07
2022-08-17T07:20:04.677Z,67.07
2022-08-17T07:21:04.671Z,67.07
2022-08-17T07:22:04.632Z,66.77
2022-08-17T07:23:04.644Z,66.56
2022-08-17T07:24:04.611Z,66.86
2022-08-17T07:25:04.591Z,67.07
2022-08-17T07:26:04.602Z,66.56
2022-08-17T07:27:04.570Z,66.56
2022-08-17T07:28:06.072Z,66.36
2022-08-17T07:29:04.572Z,66.56
2022-08-17T07:30:09.524Z,66.53
2022-08-17T07:31:05.524Z,66.24
2022-08-17T07:32:04.529Z,66.93
2022-08-17T07:33:04.504Z,66.83
2022-08-17T07:34:04.572Z,66.63
2022-08-17T07:35:04.516Z,66.73
2022-08-17T07:36:04.488Z,65.83
2022-08-17T07:37:04.466Z,66.13
2022-08-17T07:38:04.465Z,66.83
2022-08-17T07:39:05.489Z,66.93
2022-08-17T07:40:16.218Z,66.80
2022-08-17T07:41:05.469Z,66.50
2022-08-17T07:42:04.417Z,66.70
2022-08-17T07:43:04.824Z,66.57
2022-08-17T07:44:04.393Z,65.87
2022-08-17T07:45:04.413Z,65.37
2022-08-17T07:46:04.369Z,66.17
2022-08-17T07:47:04.358Z,65.08
2022-08-17T07:48:04.348Z,64.75
2022-08-17T07:49:04.338Z,64.48
2022-08-17T07:50:04.382Z,64.75
2022-08-17T07:51:04.301Z,64.54
2022-08-17T07:52:13.531Z,64.04
2022-08-17T07:53:05.305Z,64.75
2022-08-17T07:54:13.495Z,65.84
2022-08-17T07:55:05.300Z,64.84
2022-08-17T07:56:04.263Z,64.42
2022-08-17T07:57:04.240Z,65.01
2022-08-17T07:58:04.222Z,65.28
2022-08-17T07:59:04.216Z,63.19
2022-08-17T08:00:04.219Z,63.79
2022-08-17T08:01:04.219Z,63.49
2022-08-17T08:02:05.433Z,62.79
2022-08-17T08:03:04.181Z,63.09
2022-08-17T08:04:04.156Z,62.46
2022-08-17T08:05:06.729Z,62.07
2022-08-17T08:06:04.151Z,61.96
2022-08-17T08:07:04.123Z,61.47
2022-08-17T08:08:04.135Z,61.34
2022-08-17T08:09:04.106Z,61.04
2022-08-17T08:10:04.097Z,61.83
2022-08-17T08:11:04.084Z,60.82
2022-08-17T08:12:04.073Z,59.12
2022-08-17T08:13:04.073Z,59.03
2022-08-17T08:14:04.072Z,59.39
2022-08-17T08:15:04.035Z,59.19
2022-08-17T08:16:04.026Z,58.90
2022-08-17T08:17:04.018Z,58.90
2022-08-17T08:18:04.003Z,58.00
2022-08-17T08:19:03.997Z,57.41
2022-08-17T08:20:37.921Z,57.51
2022-08-17T08:21:04.975Z,57.58
2022-08-17T08:22:03.968Z,57.08
2022-08-17T08:23:03.951Z,56.66
2022-08-17T08:24:03.939Z,56.95
2022-08-17T08:25:03.989Z,56.46
2022-08-17T08:26:03.930Z,56.23
2022-08-17T08:27:03.898Z,56.13
2022-08-17T08:28:03.910Z,56.13
2022-08-17T08:29:03.925Z,56.43
2022-08-17T08:30:03.872Z,56.56
2022-08-17T08:31:03.879Z,56.63
2022-08-17T08:32:03.845Z,56.85
2022-08-17T08:33:03.842Z,56.76
2022-08-17T08:34:03.828Z,56.38
2022-08-17T08:35:04.025Z,56.78
2022-08-17T08:36:03.803Z,57.58
2022-08-17T08:37:17.113Z,56.68
2022-08-17T08:38:04.786Z,56.71
2022-08-17T08:39:03.781Z,56.91
2022-08-17T08:40:03.793Z,57.81
2022-08-17T08:41:03.755Z,57.41
2022-08-17T08:42:03.742Z,57.60
2022-08-17T08:43:03.744Z,57.64
2022-08-17T08:44:03.734Z,58.23
2022-08-17T08:45:05.118Z,58.23
2022-08-17T08:46:03.696Z,58.43
2022-08-17T08:47:03.691Z,58.33
2022-08-17T08:48:05.696Z,58.75
2022-08-17T08:49:10.158Z,58.95
2022-08-17T08:50:05.522Z,59.35
2022-08-17T08:51:03.645Z,59.35
2022-08-17T08:52:03.626Z,59.85
2022-08-17T08:53:03.607Z,59.65
2022-08-17T08:54:03.669Z,60.14
2022-08-17T08:55:03.608Z,59.95
2022-08-17T08:56:03.602Z,61.14
2022-08-17T08:57:25.132Z,61.87
2022-08-17T08:58:04.579Z,62.37
2022-08-17T08:59:03.552Z,63.16
2022-08-17T09:00:03.552Z,61.99
2022-08-17T09:01:03.567Z,63.89
2022-08-17T09:02:03.521Z,63.69
2022-08-17T09:03:03.530Z,64.58
2022-08-17T09:04:21.512Z,64.98
2022-08-17T09:05:15.721Z,65.38
2022-08-17T09:06:04.473Z,65.38
2022-08-17T09:07:03.471Z,66.87
2022-08-17T09:08:03.446Z,66.08
2022-08-17T09:09:03.438Z,67.37
2022-08-17T09:10:03.428Z,69.36
2022-08-17T09:11:03.433Z,67.07
2022-08-17T09:12:04.086Z,66.17
2022-08-17T09:13:09.528Z,66.87
2022-08-17T09:14:04.375Z,68.66
2022-08-17T09:15:03.364Z,68.23
2022-08-17T09:16:03.363Z,64.58
2022-08-17T09:17:03.372Z,64.88
2022-08-17T09:19:01.893Z,66.38
2022-08-17T09:19:05.000Z,64.98
2022-08-17T09:20:03.361Z,65.21
2022-08-17T09:21:03.295Z,64.91
2022-08-17T09:22:03.286Z,65.31
2022-08-17T09:23:03.296Z,66.20
2022-08-17T09:24:03.268Z,66.71
2022-08-17T09:25:03.258Z,66.50
2022-08-17T09:26:03.247Z,67.30
2022-08-17T09:27:03.236Z,67.10
2022-08-17T09:28:03.269Z,68.56
2022-08-17T09:29:03.230Z,68.86
2022-08-17T09:30:03.217Z,68.66
2022-08-17T09:31:03.188Z,68.37
2022-08-17T09:32:03.177Z,69.29
2022-08-17T09:33:03.175Z,68.99
2022-08-17T09:34:03.181Z,68.99
2022-08-17T09:35:03.170Z,68.70
2022-08-17T09:36:03.148Z,68.99
2022-08-17T09:37:03.121Z,69.53
2022-08-17T09:38:03.809Z,69.82
2022-08-17T09:39:03.099Z,70.22
2022-08-17T09:40:03.203Z,70.82
2022-08-17T09:41:03.070Z,71.02
2022-08-17T09:42:03.065Z,71.55
2022-08-17T09:43:03.054Z,71.65
2022-08-17T09:44:03.042Z,71.35
2022-08-17T09:45:03.024Z,71.25
2022-08-17T09:46:03.053Z,70.86
2022-08-17T09:47:03.003Z,71.95
2022-08-17T09:48:03.028Z,71.85
2022-08-17T09:49:02.986Z,71.59
2022-08-17T09:50:02.974Z,72.19
2022-08-17T09:51:05.696Z,72.78
2022-08-17T09:52:02.976Z,73.65
2022-08-17T09:53:02.937Z,73.14
2022-08-17T09:54:34.813Z,74.15
2022-08-17T09:55:03.914Z,71.95
2022-08-17T09:56:02.955Z,72.61
2022-08-17T09:57:28.016Z,71.72
2022-08-17T09:58:03.903Z,70.62
2022-08-17T09:59:02.867Z,70.89
2022-08-17T10:00:02.864Z,70.09
2022-08-17T10:01:03.027Z,71.45
2022-08-17T10:02:02.846Z,72.44
2022-08-17T10:03:02.886Z,74.00
2022-08-17T10:04:02.817Z,68.23
2022-08-17T10:05:02.867Z,68.90
2022-08-17T10:06:02.791Z,70.48
2022-08-17T10:07:02.779Z,71.08
2022-08-17T10:08:02.780Z,75.06
2022-08-17T10:09:02.786Z,69.53
2022-08-17T10:10:02.740Z,71.72
2022-08-17T10:11:02.740Z,72.28
2022-08-17T10:12:02.721Z,70.89
2022-08-17T10:13:02.720Z,71.61
2022-08-17T10:14:02.724Z,72.01
2022-08-17T10:15:08.015Z,71.31
2022-08-17T10:16:03.694Z,69.23
2022-08-17T10:17:02.692Z,71.75
2022-08-17T10:18:02.686Z,70.26
2022-08-17T10:19:02.642Z,70.56
2022-08-17T10:20:02.673Z,71.22
2022-08-17T10:21:02.669Z,70.72
2022-08-17T10:22:14.912Z,71.68
2022-08-17T10:23:03.613Z,71.38
2022-08-17T10:24:02.610Z,70.45
2022-08-17T10:25:22.480Z,69.46
2022-08-17T10:26:03.576Z,69.79
2022-08-17T10:27:02.561Z,68.20
2022-08-17T10:28:02.549Z,69.20
2022-08-17T10:29:02.560Z,68.93
2022-08-17T10:30:02.517Z,68.33
2022-08-17T10:31:33.158Z,68.73
2022-08-17T10:32:03.497Z,68.90
2022-08-17T10:33:02.541Z,67.70
2022-08-17T10:34:02.476Z,68.70
2022-08-17T10:35:02.460Z,68.30
2022-08-17T10:36:05.293Z,68.10
2022-08-17T10:37:03.477Z,68.00
2022-08-17T10:38:02.448Z,67.60
2022-08-17T10:39:02.418Z,67.50
2022-08-17T10:40:02.504Z,68.76
2022-08-17T10:41:02.391Z,68.83
2022-08-17T10:42:02.403Z,69.29
2022-08-17T10:43:02.393Z,66.22
2022-08-17T10:44:39.517Z,66.91
2022-08-17T10:45:03.350Z,66.98
2022-08-17T10:46:09.273Z,63.70
2022-08-17T10:47:03.321Z,64.00
2022-08-17T10:48:05.858Z,63.83
2022-08-17T10:49:02.338Z,63.60
2022-08-17T10:50:02.302Z,63.21
2022-08-17T10:51:02.274Z,62.24
2022-08-17T10:52:02.292Z,63.76
2022-08-17T10:53:02.264Z,63.96
2022-08-17T10:54:02.280Z,64.23
2022-08-17T10:55:02.233Z,64.53
2022-08-17T10:56:02.223Z,64.50
2022-08-17T10:57:02.215Z,63.80
2022-08-17T10:58:02.193Z,63.51
2022-08-17T10:59:02.184Z,63.04
2022-08-17T11:00:02.245Z,63.34
2022-08-17T11:01:02.285Z,63.64
2022-08-17T11:02:02.159Z,63.10
2022-08-17T11:03:02.147Z,63.01
2022-08-17T11:04:02.144Z,63.21
2022-08-17T11:05:02.130Z,63.70
2022-08-17T11:06:03.336Z,62.34
2022-08-17T11:07:02.111Z,63.40
2022-08-17T11:08:02.095Z,63.10
2022-08-17T11:09:02.093Z,62.45
2022-08-17T11:10:02.106Z,62.34
2022-08-17T11:11:02.067Z,63.31
2022-08-17T11:12:02.069Z,63.31
2022-08-17T11:13:02.049Z,63.57
2022-08-17T11:14:02.039Z,62.68
2022-08-17T11:15:02.072Z,62.68
2022-08-17T11:16:07.666Z,63.08
2022-08-17T11:17:03.031Z,61.99
2022-08-17T11:18:01.997Z,62.45
2022-08-17T11:19:01.970Z,61.79
2022-08-17T11:20:01.960Z,61.86
2022-08-17T11:21:01.953Z,62.02
2022-08-17T11:22:01.944Z,61.73
2022-08-17T11:23:01.953Z,60.74
2022-08-17T11:24:01.911Z,60.31
2022-08-17T11:25:01.909Z,60.78
2022-08-17T11:26:01.898Z,60.48
2022-08-17T11:27:01.897Z,58.90
2022-08-17T11:28:02.012Z,59.72
2022-08-17T11:29:01.883Z,59.12
2022-08-17T11:30:02.858Z,59.62
2022-08-17T11:31:01.859Z,59.22
2022-08-17T11:32:01.824Z,59.35
2022-08-17T11:33:01.814Z,59.55
2022-08-17T11:34:02.944Z,60.14
2022-08-17T11:35:01.816Z,60.17
2022-08-17T11:36:01.776Z,60.14
2022-08-17T11:37:01.777Z,60.64
2022-08-17T11:38:01.752Z,60.21
2022-08-17T11:39:01.753Z,60.41
2022-08-17T11:40:01.840Z,59.05
2022-08-17T11:41:01.745Z,59.45
2022-08-17T11:42:01.718Z,59.94
2022-08-17T11:43:01.701Z,60.54
2022-08-17T11:44:02.039Z,61.16
2022-08-17T11:45:01.684Z,61.76
2022-08-17T11:46:01.720Z,61.86
2022-08-17T11:47:01.691Z,61.19
2022-08-17T11:48:26.527Z,61.99
2022-08-17T11:49:02.680Z,63.08
2022-08-17T11:50:01.622Z,62.31
2022-08-17T11:51:01.610Z,62.98
2022-08-17T11:52:01.731Z,63.18
2022-08-17T11:53:01.590Z,62.88
2022-08-17T11:54:30.703Z,64.17
2022-08-17T11:55:24.103Z,62.91
2022-08-17T11:56:02.553Z,63.40
2022-08-17T11:57:01.567Z,63.48
2022-08-17T11:58:01.603Z,63.37
2022-08-17T11:59:01.525Z,62.05
2022-08-17T12:00:01.520Z,62.62
2022-08-17T12:01:01.522Z,61.40
2022-08-17T12:02:01.543Z,60.81
2022-08-17T12:03:01.466Z,59.19
2022-08-17T12:04:01.511Z,59.69
2022-08-17T12:05:01.444Z,58.67
2022-08-17T12:06:01.434Z,58.25
2022-08-17T12:07:01.427Z,57.56
2022-08-17T12:08:01.426Z,57.33
2022-08-17T12:09:01.411Z,57.06
2022-08-17T12:10:01.388Z,57.92
2022-08-17T12:11:01.375Z,56.57
2022-08-17T12:12:13.207Z,57.75
2022-08-17T12:13:02.391Z,56.93
2022-08-17T12:14:01.357Z,55.52
2022-08-17T12:15:11.352Z,55.30
2022-08-17T12:16:02.328Z,54.48
2022-08-17T12:17:01.315Z,53.17
2022-08-17T12:18:01.323Z,52.36
2022-08-17T12:19:01.317Z,52.26
2022-08-17T12:20:01.308Z,51.64
2022-08-17T12:21:01.284Z,50.83
2022-08-17T12:22:01.248Z,51.12
2022-08-17T12:23:01.420Z,50.24
2022-08-17T12:24:01.241Z,51.64
2022-08-17T12:25:01.232Z,51.05
2022-08-17T12:26:01.227Z,50.73
2022-08-17T12:27:01.210Z,50.44
2022-08-17T12:28:06.808Z,50.56
2022-08-17T12:29:02.191Z,51.54
2022-08-17T12:30:01.160Z,50.76
2022-08-17T12:31:01.195Z,50.46
2022-08-17T12:32:01.153Z,51.03
2022-08-17T12:33:01.141Z,51.12
2022-08-17T12:34:01.132Z,50.83
2022-08-17T12:35:01.114Z,49.73
2022-08-17T12:36:01.202Z,49.62
2022-08-17T12:37:01.083Z,50.31
2022-08-17T12:38:01.093Z,48.64
2022-08-17T12:39:14.611Z,49.26
2022-08-17T12:40:02.121Z,49.26
2022-08-17T12:41:01.044Z,49.65
2022-08-17T12:42:02.668Z,49.06
2022-08-17T12:43:01.027Z,48.66
2022-08-17T12:44:01.007Z,48.96
2022-08-17T12:45:00.997Z,48.47
2022-08-17T12:46:00.998Z,48.76
2022-08-17T12:47:02.001Z,47.48
2022-08-17T12:48:00.973Z,48.79
2022-08-17T12:49:00.958Z,48.98
2022-08-17T12:50:00.974Z,48.69
2022-08-17T12:51:00.942Z,48.47
2022-08-17T12:52:00.920Z,48.27